KARR/ARR METAR and TAF weather

Enter ICAO airport designator
Station Type Date Time Source
KARR METAR 2019/02/23 01:52 UTC NOAA

KARR 230152Z 07009KT 5SM HZ SCT095 OVC110 01/M04 A3031 RMK AO2 SLP272 T00061039


Station Type Date Time Source
KARR Decoded METAR 2019/02/23 01:52 UTC NOAA

CHICAGO AURORA MUNICIPAL, IL, United States (KARR) 41-46N 088-28W 215M
Feb 22, 2019 - 08:52 PM EST / 2019.02.23 0152 UTC
Wind: from the ENE (070 degrees) at 10 MPH (9 KT):0
Visibility: 5 mile(s):0
Sky conditions: overcast
Weather: haze
Temperature: 33.1 F (0.6 C)
Windchill: 24 F (-4 C):1
Dew Point: 25.0 F (-3.9 C)
Relative Humidity: 71%
Pressure (altimeter): 30.31 in. Hg (1026 hPa)
ob: KARR 230152Z 07009KT 5SM HZ SCT095 OVC110 01/M04 A3031 RMK AO2 SLP272 T00061039
cycle: 2

Station Type Date Time Source
KARR TAF UTC NOAA

Error!


Example: see airport list